Time,TemperatureF,DewpointF,PressureIn,WindDirection,WindDirectionDegrees,WindSpeedMPH,WindSpeedGustMPH,Humidity,HourlyPrecipIn,Conditions,Clouds,dailyrainin,SoftwareType,DateUTC
2013-02-22 00:16:00,25.1,16.0,30.19,NW,314,0.0,8.0,67,0.00,,,0.00,weatherlink.com 1.10,2013-02-22 05:16:00,
2013-02-22 00:31:00,25.2,16.0,30.20,WNW,292,2.0,7.0,68,0.00,,,0.00,weatherlink.com 1.10,2013-02-22 05:31:00,
2013-02-22 00:46:00,25.4,16.0,30.21,NE,53,2.0,7.0,67,0.00,,,0.00,weatherlink.com 1.10,2013-02-22 05:46:00,
2013-02-22 01:02:00,25.4,16.0,30.23,ESE,118,0.0,6.0,67,0.00,,,0.00,weatherlink.com 1.10,2013-02-22 06:02:00,
2013-02-22 01:16:00,25.3,16.0,30.22,WNW,299,2.0,7.0,68,0.00,,,0.00,weatherlink.com 1.10,2013-02-22 06:16:00,
2013-02-22 01:32:00,25.5,16.0,30.23,East,85,1.0,7.0,68,0.00,,,0.00,weatherlink.com 1.10,2013-02-22 06:32:00,
2013-02-22 01:47:00,25.4,17.0,30.22,ENE,74,0.0,8.0,69,0.00,,,0.00,weatherlink.com 1.10,2013-02-22 06:47:00,
2013-02-22 02:02:00,25.1,17.0,30.23,East,95,0.0,4.0,70,0.00,,,0.00,weatherlink.com 1.10,2013-02-22 07:02:00,
2013-02-22 02:17:00,25.3,17.0,30.23,North,11,0.0,5.0,70,0.00,,,0.00,weatherlink.com 1.10,2013-02-22 07:17:00,
2013-02-22 02:32:00,25.5,17.0,30.23,East,79,0.0,13.0,70,0.00,,,0.00,weatherlink.com 1.10,2013-02-22 07:32:00,
2013-02-22 02:47:00,25.4,17.0,30.25,NW,306,1.0,8.0,70,0.00,,,0.00,weatherlink.com 1.10,2013-02-22 07:47:00,
2013-02-22 03:02:00,25.3,17.0,30.24,NW,326,0.0,3.0,71,0.00,,,0.00,weatherlink.com 1.10,2013-02-22 08:02:00,
2013-02-22 03:17:00,25.3,17.0,30.25,WNW,301,0.0,2.0,71,0.00,,,0.00,weatherlink.com 1.10,2013-02-22 08:17:00,
2013-02-22 03:32:00,25.3,17.0,30.26,North,351,0.0,3.0,72,0.00,,,0.00,weatherlink.com 1.10,2013-02-22 08:32:00,
2013-02-22 03:47:00,25.3,17.0,30.26,NNW,342,0.0,2.0,72,0.00,,,0.00,weatherlink.com 1.10,2013-02-22 08:47:00,
2013-02-22 04:02:00,25.3,17.0,30.26,West,280,0.0,5.0,72,0.00,,,0.00,weatherlink.com 1.10,2013-02-22 09:02:00,
2013-02-22 04:17:00,25.3,18.0,30.27,West,277,0.0,3.0,73,0.00,,,0.00,weatherlink.com 1.10,2013-02-22 09:17:00,
2013-02-22 04:32:00,25.2,18.0,30.27,NNE,19,0.0,3.0,73,0.00,,,0.00,weatherlink.com 1.10,2013-02-22 09:32:00,
2013-02-22 04:47:00,24.9,18.0,30.26,NW,326,1.0,3.0,74,0.00,,,0.00,weatherlink.com 1.10,2013-02-22 09:47:00,
2013-02-22 05:02:00,24.6,18.0,30.28,NNW,330,0.0,2.0,75,0.00,,,0.00,weatherlink.com 1.10,2013-02-22 10:02:00,
2013-02-22 05:17:00,24.4,18.0,30.29,NW,311,0.0,2.0,75,0.00,,,0.00,weatherlink.com 1.10,2013-02-22 10:17:00,
2013-02-22 05:32:00,24.0,17.0,30.30,NW,321,1.0,1.0,76,0.00,,,0.00,weatherlink.com 1.10,2013-02-22 10:32:00,
2013-02-22 05:47:00,23.8,17.0,30.30,NW,316,1.0,1.0,76,0.00,,,0.00,weatherlink.com 1.10,2013-02-22 10:47:00,
2013-02-22 06:02:00,23.6,17.0,30.32,NW,317,1.0,2.0,77,0.00,,,0.00,weatherlink.com 1.10,2013-02-22 11:02:00,
2013-02-22 06:17:00,23.4,18.0,30.33,NNW,329,0.0,1.0,78,0.00,,,0.00,weatherlink.com 1.10,2013-02-22 11:17:00,
2013-02-22 06:32:00,23.2,17.0,30.33,NNW,332,0.0,1.0,78,0.00,,,0.00,weatherlink.com 1.10,2013-02-22 11:32:00,
2013-02-22 06:47:00,23.0,17.0,30.34,WNW,296,1.0,2.0,78,0.00,,,0.00,weatherlink.com 1.10,2013-02-22 11:47:00,
2013-02-22 07:02:00,23.0,17.0,30.36,West,279,0.0,1.0,79,0.00,,,0.00,weatherlink.com 1.10,2013-02-22 12:02:00,
2013-02-22 07:17:00,24.1,18.0,30.36,West,269,1.0,1.0,78,0.00,,,0.00,weatherlink.com 1.10,2013-02-22 12:17:00,
2013-02-22 07:32:00,24.9,18.0,30.36,WSW,252,0.0,4.0,76,0.00,,,0.00,weatherlink.com 1.10,2013-02-22 12:32:00,
2013-02-22 07:47:00,26.0,19.0,30.37,NW,315,0.0,7.0,74,0.00,,,0.00,weatherlink.com 1.10,2013-02-22 12:47:00,
2013-02-22 08:02:00,27.3,20.0,30.37,NW,310,1.0,3.0,73,0.00,,,0.00,weatherlink.com 1.10,2013-02-22 13:02:00,
2013-02-22 08:17:00,29.3,20.0,30.36,East,84,1.0,7.0,68,0.00,,,0.00,weatherlink.com 1.10,2013-02-22 13:17:00,
2013-02-22 08:32:00,30.5,20.0,30.37,NE,44,2.0,7.0,65,0.00,,,0.00,weatherlink.com 1.10,2013-02-22 13:32:00,
2013-02-22 08:48:00,31.7,20.0,30.36,NNE,30,2.0,5.0,63,0.00,,,0.00,weatherlink.com 1.10,2013-02-22 13:48:00,
2013-02-22 09:03:00,33.2,21.0,30.36,ENE,75,5.0,6.0,60,0.00,,,0.00,weatherlink.com 1.10,2013-02-22 14:03:00,
2013-02-22 09:18:00,34.2,21.0,30.36,SW,224,1.0,7.0,58,0.00,,,0.00,weatherlink.com 1.10,2013-02-22 14:18:00,
2013-02-22 09:33:00,35.0,21.0,30.36,West,279,3.0,7.0,57,0.00,,,0.00,weatherlink.com 1.10,2013-02-22 14:33:00,
2013-02-22 09:48:00,35.6,21.0,30.36,NNW,336,6.0,7.0,56,0.00,,,0.00,weatherlink.com 1.10,2013-02-22 14:48:00,
2013-02-22 10:18:00,36.9,21.0,30.36,East,94,1.0,6.0,54,0.00,,,0.00,weatherlink.com 1.10,2013-02-22 15:18:00,
2013-02-22 10:33:00,37.2,20.0,30.36,WNW,287,1.0,7.0,51,0.00,,,0.00,weatherlink.com 1.10,2013-02-22 15:33:00,
2013-02-22 10:48:00,37.6,21.0,30.35,NNW,337,3.0,6.0,51,0.00,,,0.00,weatherlink.com 1.10,2013-02-22 15:48:00,
2013-02-22 11:03:00,38.6,20.0,30.35,NW,326,2.0,7.0,48,0.00,,,0.00,weatherlink.com 1.10,2013-02-22 16:03:00,
2013-02-22 11:18:00,38.4,20.0,30.34,East,84,6.0,10.0,48,0.00,,,0.00,weatherlink.com 1.10,2013-02-22 16:18:00,
2013-02-22 11:33:00,38.9,21.0,30.34,NNW,336,2.0,11.0,49,0.00,,,0.00,weatherlink.com 1.10,2013-02-22 16:33:00,
2013-02-22 11:48:00,38.9,21.0,30.34,NW,319,0.0,7.0,48,0.00,,,0.00,weatherlink.com 1.10,2013-02-22 16:48:00,
2013-02-22 12:03:00,38.6,20.0,30.34,SE,137,0.0,6.0,47,0.00,,,0.00,weatherlink.com 1.10,2013-02-22 17:03:00,
2013-02-22 12:18:00,38.8,20.0,30.33,WNW,294,1.0,4.0,47,0.00,,,0.00,weatherlink.com 1.10,2013-02-22 17:18:00,
2013-02-22 12:33:00,38.7,20.0,30.34,ENE,68,0.0,5.0,48,0.00,,,0.00,weatherlink.com 1.10,2013-02-22 17:33:00,
2013-02-22 12:48:00,39.5,20.0,30.33,ESE,102,0.0,5.0,45,0.00,,,0.00,weatherlink.com 1.10,2013-02-22 17:48:00,
2013-02-22 13:03:00,40.2,20.0,30.34,ESE,104,1.0,6.0,45,0.00,,,0.00,weatherlink.com 1.10,2013-02-22 18:03:00,
2013-02-22 13:18:00,40.0,21.0,30.33,NW,312,1.0,3.0,46,0.00,,,0.00,weatherlink.com 1.10,2013-02-22 18:18:00,
2013-02-22 13:33:00,40.5,21.0,30.34,ESE,121,2.0,5.0,46,0.00,,,0.00,weatherlink.com 1.10,2013-02-22 18:33:00,
2013-02-22 13:48:00,40.7,21.0,30.33,ENE,76,1.0,3.0,46,0.00,,,0.00,weatherlink.com 1.10,2013-02-22 18:48:00,
2013-02-22 14:03:00,40.6,21.0,30.32,WNW,296,0.0,6.0,45,0.00,,,0.00,weatherlink.com 1.10,2013-02-22 19:03:00,
2013-02-22 14:18:00,40.4,20.0,30.33,SE,134,1.0,5.0,44,0.00,,,0.00,weatherlink.com 1.10,2013-02-22 19:18:00,
2013-02-22 14:33:00,39.7,19.0,30.32,SE,133,0.0,3.0,44,0.00,,,0.00,weatherlink.com 1.10,2013-02-22 19:33:00,
2013-02-22 14:48:00,40.0,20.0,30.33,NNE,13,4.0,4.0,44,0.00,,,0.00,weatherlink.com 1.10,2013-02-22 19:48:00,
2013-02-22 15:03:00,40.0,20.0,30.32,ESE,116,0.0,5.0,45,0.00,,,0.00,weatherlink.com 1.10,2013-02-22 20:03:00,
2013-02-22 15:18:00,39.8,19.0,30.32,East,92,1.0,4.0,43,0.00,,,0.00,weatherlink.com 1.10,2013-02-22 20:18:00,
2013-02-22 15:33:00,39.1,19.0,30.33,East,88,0.0,6.0,45,0.00,,,0.00,weatherlink.com 1.10,2013-02-22 20:33:00,
2013-02-22 15:48:00,38.3,19.0,30.33,East,97,1.0,4.0,46,0.00,,,0.00,weatherlink.com 1.10,2013-02-22 20:48:00,
2013-02-22 16:03:00,37.9,21.0,30.33,ESE,105,2.0,5.0,50,0.00,,,0.00,weatherlink.com 1.10,2013-02-22 21:03:00,
2013-02-22 16:18:00,37.6,22.0,30.32,East,91,1.0,4.0,54,0.00,,,0.00,weatherlink.com 1.10,2013-02-22 21:18:00,
2013-02-22 16:33:00,36.3,23.0,30.31,ESE,111,2.0,10.0,58,0.00,,,0.00,weatherlink.com 1.10,2013-02-22 21:33:00,
2013-02-22 16:48:00,35.9,23.0,30.32,East,88,1.0,7.0,60,0.00,,,0.00,weatherlink.com 1.10,2013-02-22 21:48:00,
2013-02-22 17:03:00,35.3,24.0,30.31,ENE,71,0.0,7.0,63,0.00,,,0.00,weatherlink.com 1.10,2013-02-22 22:03:00,
2013-02-22 17:18:00,35.0,24.0,30.32,ESE,107,2.0,5.0,64,0.00,,,0.00,weatherlink.com 1.10,2013-02-22 22:18:00,
2013-02-22 17:33:00,34.5,24.0,30.32,ESE,109,1.0,5.0,65,0.00,,,0.00,weatherlink.com 1.10,2013-02-22 22:33:00,
2013-02-22 17:48:00,34.3,24.0,30.32,ESE,111,0.0,4.0,66,0.00,,,0.00,weatherlink.com 1.10,2013-02-22 22:48:00,
2013-02-22 18:03:00,34.3,24.0,30.33,SW,222,0.0,1.0,66,0.00,,,0.00,weatherlink.com 1.10,2013-02-22 23:03:00,
2013-02-22 18:18:00,34.0,24.0,30.33,SE,125,2.0,3.0,67,0.00,,,0.00,weatherlink.com 1.10,2013-02-22 23:18:00,
2013-02-22 18:33:00,33.8,24.0,30.33,East,92,0.0,3.0,68,0.00,,,0.00,weatherlink.com 1.10,2013-02-22 23:33:00,
2013-02-22 18:48:00,33.6,24.0,30.34,ESE,122,0.0,1.0,69,0.00,,,0.00,weatherlink.com 1.10,2013-02-22 23:48:00,
2013-02-22 19:03:00,33.4,25.0,30.34,ESE,108,0.0,1.0,70,0.00,,,0.00,weatherlink.com 1.10,2013-02-23 00:03:00,
2013-02-22 19:18:00,33.4,25.0,30.34,SSE,150,2.0,2.0,70,0.00,,,0.00,weatherlink.com 1.10,2013-02-23 00:18:00,
2013-02-22 19:33:00,33.2,24.0,30.34,ESE,111,0.0,1.0,70,0.00,,,0.00,weatherlink.com 1.10,2013-02-23 00:33:00,
2013-02-22 19:48:00,33.2,25.0,30.33,ESE,107,0.0,1.0,71,0.00,,,0.00,weatherlink.com 1.10,2013-02-23 00:48:00,
2013-02-22 20:03:00,33.1,25.0,30.34,SE,129,0.0,1.0,71,0.00,,,0.00,weatherlink.com 1.10,2013-02-23 01:03:00,
2013-02-22 20:18:00,33.1,25.0,30.35,SE,132,0.0,1.0,71,0.00,,,0.00,weatherlink.com 1.10,2013-02-23 01:18:00,
2013-02-22 20:33:00,33.0,25.0,30.35,SW,231,0.0,0.0,71,0.00,,,0.00,weatherlink.com 1.10,2013-02-23 01:33:00,
2013-02-22 20:48:00,32.9,24.0,30.34,SE,129,0.0,1.0,71,0.00,,,0.00,weatherlink.com 1.10,2013-02-23 01:48:00,
2013-02-22 21:03:00,32.9,24.0,30.33,East,99,0.0,1.0,71,0.00,,,0.00,weatherlink.com 1.10,2013-02-23 02:03:00,
2013-02-22 21:18:00,32.8,24.0,30.34,East,99,0.0,1.0,71,0.00,,,0.00,weatherlink.com 1.10,2013-02-23 02:18:00,
2013-02-22 21:33:00,32.4,25.0,30.34,East,98,0.0,1.0,73,0.00,,,0.00,weatherlink.com 1.10,2013-02-23 02:33:00,
2013-02-22 21:48:00,32.4,25.0,30.34,East,100,0.0,0.0,73,0.00,,,0.00,weatherlink.com 1.10,2013-02-23 02:48:00,
2013-02-22 22:03:00,32.4,25.0,30.34,East,100,0.0,0.0,74,0.00,,,0.00,weatherlink.com 1.10,2013-02-23 03:03:00,
2013-02-22 22:18:00,32.4,25.0,30.34,East,99,0.0,0.0,74,0.00,,,0.00,weatherlink.com 1.10,2013-02-23 03:18:00,
2013-02-22 22:33:00,32.1,25.0,30.34,East,100,0.0,1.0,75,0.00,,,0.00,weatherlink.com 1.10,2013-02-23 03:33:00,
2013-02-22 22:48:00,31.7,24.0,30.34,East,99,0.0,0.0,74,0.00,,,0.00,weatherlink.com 1.10,2013-02-23 03:48:00,
2013-02-22 23:03:00,31.6,25.0,30.33,East,100,0.0,0.0,75,0.00,,,0.00,weatherlink.com 1.10,2013-02-23 04:03:00,
2013-02-22 23:18:00,31.7,25.0,30.33,East,99,0.0,0.0,76,0.00,,,0.00,weatherlink.com 1.10,2013-02-23 04:18:00,
2013-02-22 23:33:00,31.6,25.0,30.33,East,100,0.0,0.0,76,0.00,,,0.00,weatherlink.com 1.10,2013-02-23 04:33:00,
2013-02-22 23:48:00,31.5,25.0,30.33,East,100,0.0,0.0,76,0.00,,,0.00,weatherlink.com 1.10,2013-02-23 04:48:00,